Time;durP1;ratioP1;P1;durP2;ratioP2;P2;SDS_P1;SDS_P2;PMS_P1;PMS_P2;Temp;Humidity;BMP_temperature;BMP_pressure;BME280_temperature;BME280_humidity;BME280_pressure;Samples;Min_cycle;Max_cycle;Signal;HPM_P1;HPM_P2
2023/12/01 00:02:11;;;;;;;73.23;29.13;;;1.30;99.90;;;;;;5049094;28;20267;-60
2023/12/01 00:04:37;;;;;;;75.27;30.30;;;1.30;99.90;;;;;;5048933;28;20497;-60
2023/12/01 00:07:03;;;;;;;74.93;29.23;;;1.30;99.90;;;;;;5048682;28;20041;-58
2023/12/01 00:09:29;;;;;;;72.70;28.45;;;1.30;99.90;;;;;;5047536;28;20033;-61
2023/12/01 00:11:55;;;;;;;68.50;26.88;;;1.30;99.90;;;;;;5051129;28;20040;-60
2023/12/01 00:14:21;;;;;;;72.97;29.70;;;1.20;99.90;;;;;;5049332;28;20138;-60
2023/12/01 00:16:46;;;;;;;67.70;27.87;;;1.30;99.90;;;;;;5048352;28;20087;-60
2023/12/01 00:19:12;;;;;;;70.67;27.00;;;1.20;99.90;;;;;;5029026;28;20033;-60
2023/12/01 00:21:37;;;;;;;67.50;27.27;;;1.20;99.90;;;;;;5048696;28;20077;-58
2023/12/01 00:24:03;;;;;;;63.33;29.00;;;1.20;99.90;;;;;;5048667;28;20409;-59
2023/12/01 00:26:29;;;;;;;62.88;28.25;;;1.20;99.90;;;;;;5029038;28;20037;-59
2023/12/01 00:28:54;;;;;;;69.33;28.50;;;1.20;99.90;;;;;;5048785;28;20411;-59
2023/12/01 00:31:20;;;;;;;72.37;30.03;;;1.10;99.90;;;;;;5055238;28;20098;-57
2023/12/01 00:33:46;;;;;;;70.93;30.23;;;1.10;99.90;;;;;;5047514;28;20068;-59
2023/12/01 00:36:11;;;;;;;63.63;26.57;;;1.10;99.90;;;;;;5044406;28;21426;-58
2023/12/01 00:38:37;;;;;;;59.13;25.43;;;1.10;99.90;;;;;;5048060;28;20029;-58
2023/12/01 00:41:03;;;;;;;70.50;28.17;;;1.10;99.90;;;;;;5048129;28;20048;-59
2023/12/01 00:43:28;;;;;;;65.43;26.88;;;1.10;99.90;;;;;;5030515;28;20043;-59
2023/12/01 00:45:54;;;;;;;63.57;26.10;;;1.10;99.90;;;;;;5048420;28;20464;-58
2023/12/01 00:48:20;;;;;;;61.07;25.10;;;1.10;99.90;;;;;;5048511;28;20032;-59
2023/12/01 00:50:45;;;;;;;65.20;28.33;;;1.10;99.90;;;;;;5049738;28;20514;-59
2023/12/01 00:53:11;;;;;;;67.17;25.93;;;1.00;99.90;;;;;;5051509;28;20035;-60
2023/12/01 00:55:36;;;;;;;62.80;25.90;;;1.00;99.90;;;;;;5049412;28;20060;-57
2023/12/01 00:58:03;;;;;;;62.27;25.77;;;0.90;99.90;;;;;;5048477;28;20045;-59
2023/12/01 01:00:28;;;;;;;54.22;22.90;;;1.00;99.90;;;;;;5050331;28;20037;-59
2023/12/01 01:02:54;;;;;;;53.60;23.70;;;1.00;99.90;;;;;;5047154;28;20045;-55
2023/12/01 01:05:20;;;;;;;48.47;22.93;;;1.00;99.90;;;;;;5046656;28;20276;-58
2023/12/01 01:07:46;;;;;;;51.15;22.75;;;1.00;99.90;;;;;;5048526;28;21037;-58
2023/12/01 01:10:11;;;;;;;53.60;22.92;;;1.00;99.90;;;;;;5048297;28;20041;-58
2023/12/01 01:12:37;;;;;;;55.47;23.57;;;0.90;99.90;;;;;;5048476;28;20040;-60
2023/12/01 01:15:12;;;;;;;53.75;21.42;;;0.90;99.90;;;;;;5046714;28;20171;-59
2023/12/01 01:17:37;;;;;;;52.50;22.20;;;0.90;99.90;;;;;;5050866;28;20036;-60
2023/12/01 01:20:03;;;;;;;48.13;20.87;;;0.90;99.90;;;;;;5048082;28;20031;-57
2023/12/01 01:22:29;;;;;;;47.90;20.92;;;0.90;99.90;;;;;;5051003;28;20064;-60
2023/12/01 01:24:55;;;;;;;52.63;22.53;;;0.80;99.90;;;;;;5049461;28;20064;-59
2023/12/01 01:27:20;;;;;;;48.60;21.53;;;0.80;99.90;;;;;;5048327;28;20045;-59
2023/12/01 01:29:46;;;;;;;53.45;22.83;;;0.80;99.90;;;;;;5047297;28;20041;-59
2023/12/01 01:32:12;;;;;;;52.00;22.77;;;0.80;99.90;;;;;;5048143;28;20040;-60
2023/12/01 01:34:38;;;;;;;50.30;21.75;;;0.80;99.90;;;;;;5049817;28;20084;-60
2023/12/01 01:37:04;;;;;;;52.33;24.27;;;0.70;99.90;;;;;;5047628;28;20041;-59
2023/12/01 01:39:30;;;;;;;50.03;23.20;;;0.70;99.90;;;;;;5047291;28;20458;-59
2023/12/01 01:41:56;;;;;;;48.88;22.17;;;0.70;99.90;;;;;;5051958;28;20040;-59
2023/12/01 01:44:22;;;;;;;58.25;22.77;;;0.70;99.90;;;;;;5048037;28;20041;-57
2023/12/01 01:46:50;;;;;;;55.22;22.02;;;0.70;99.90;;;;;;5047966;28;20041;-58
2023/12/01 01:49:16;;;;;;;53.22;21.90;;;0.70;99.90;;;;;;5047299;28;20094;-60
2023/12/01 01:51:42;;;;;;;45.00;21.65;;;0.70;99.90;;;;;;5047366;28;20412;-59
2023/12/01 01:54:09;;;;;;;55.15;24.08;;;0.70;99.90;;;;;;5031160;28;20041;-60
2023/12/01 01:56:35;;;;;;;57.28;23.58;;;0.70;99.90;;;;;;5028501;28;20073;-58
2023/12/01 01:59:01;;;;;;;52.47;21.80;;;0.70;99.90;;;;;;5045948;28;20086;-57
2023/12/01 02:01:26;;;;;;;54.13;21.27;;;0.70;99.90;;;;;;5047404;28;20155;-60
2023/12/01 02:03:53;;;;;;;49.70;21.03;;;0.70;99.90;;;;;;5046719;28;20072;-59
2023/12/01 02:06:19;;;;;;;46.80;20.58;;;0.60;99.90;;;;;;5047757;28;20040;-60
2023/12/01 02:08:45;;;;;;;53.75;22.38;;;0.50;99.90;;;;;;5047674;28;20047;-60
2023/12/01 02:11:13;;;;;;;54.15;23.38;;;0.50;99.90;;;;;;5049970;28;20033;-60
2023/12/01 02:13:39;;;;;;;53.72;23.25;;;0.50;99.90;;;;;;5049033;28;20095;-59
2023/12/01 02:16:07;;;;;;;55.72;23.08;;;0.40;99.90;;;;;;5046924;28;20060;-60
2023/12/01 02:18:35;;;;;;;51.40;22.58;;;0.40;99.90;;;;;;5044820;28;20465;-60
2023/12/01 02:21:01;;;;;;;50.38;21.60;;;0.40;99.90;;;;;;5047195;28;20494;-59
2023/12/01 02:23:27;;;;;;;54.15;22.45;;;0.40;99.90;;;;;;5047298;28;20044;-60
2023/12/01 02:25:53;;;;;;;46.83;21.40;;;0.40;99.90;;;;;;5046908;28;20072;-59
2023/12/01 02:28:19;;;;;;;51.35;22.27;;;0.40;99.90;;;;;;5048428;28;20049;-60
2023/12/01 02:30:53;;;;;;;57.15;22.42;;;0.30;99.90;;;;;;5047791;28;20033;-60
2023/12/01 02:33:19;;;;;;;54.78;22.60;;;0.40;99.90;;;;;;5046705;28;20091;-60
2023/12/01 02:35:52;;;;;;;52.30;22.30;;;0.40;99.90;;;;;;5046447;28;20094;-60
2023/12/01 02:38:19;;;;;;;48.75;21.55;;;0.40;99.90;;;;;;5030890;28;20037;-59
2023/12/01 02:40:49;;;;;;;;;;;0.40;99.90;;;;;;5047969;28;20068;-59
2023/12/01 02:43:15;;;;;;;47.80;19.73;;;0.40;99.90;;;;;;5047036;28;19916;-59
2023/12/01 02:45:41;;;;;;;45.75;21.73;;;0.40;99.90;;;;;;5041744;28;20040;-60
2023/12/01 02:48:07;;;;;;;55.43;21.07;;;0.40;99.90;;;;;;5047737;28;20036;-59
2023/12/01 02:50:34;;;;;;;50.25;21.33;;;0.40;99.90;;;;;;5048279;28;20124;-57
2023/12/01 02:53:07;;;;;;;48.53;21.20;;;0.40;99.90;;;;;;5050099;28;20091;-59
2023/12/01 02:55:33;;;;;;;45.90;21.05;;;0.40;99.90;;;;;;5030831;28;20471;-57
2023/12/01 02:57:59;;;;;;;39.38;19.67;;;0.40;99.90;;;;;;5050658;28;20094;-58
2023/12/01 03:00:25;;;;;;;41.80;19.60;;;0.30;99.90;;;;;;5051180;28;20402;-59
2023/12/01 03:02:52;;;;;;;41.40;19.65;;;0.30;99.90;;;;;;5032965;28;20083;-58
2023/12/01 03:05:18;;;;;;;41.88;20.17;;;0.20;99.90;;;;;;5051811;28;20048;-58
2023/12/01 03:07:44;;;;;;;39.13;18.67;;;0.10;99.90;;;;;;5049325;28;20041;-57
2023/12/01 03:10:10;;;;;;;44.93;19.27;;;0.10;99.90;;;;;;5032964;28;20078;-59
2023/12/01 03:12:37;;;;;;;41.35;19.38;;;0.10;99.90;;;;;;5051805;28;20783;-58
2023/12/01 03:15:07;;;;;;;46.10;20.08;;;0.10;99.90;;;;;;5050622;28;20047;-57
2023/12/01 03:17:32;;;;;;;41.22;19.02;;;0.10;99.90;;;;;;5050268;28;20564;-59
2023/12/01 03:19:58;;;;;;;40.08;19.10;;;0.10;99.90;;;;;;5049817;28;20271;-60
2023/12/01 03:22:24;;;;;;;39.97;18.53;;;0.10;99.90;;;;;;5031557;28;20044;-60
2023/12/01 03:24:50;;;;;;;37.95;19.02;;;0.10;99.90;;;;;;5049770;28;20801;-59
2023/12/01 03:27:25;;;;;;;36.88;18.23;;;0.20;99.90;;;;;;5048580;28;20024;-60
2023/12/01 03:29:52;;;;;;;33.28;16.25;;;0.20;99.90;;;;;;5048925;28;20103;-60
2023/12/01 03:32:18;;;;;;;38.50;17.42;;;0.20;99.90;;;;;;5049093;28;20080;-59
2023/12/01 03:34:44;;;;;;;36.53;17.77;;;0.20;99.90;;;;;;5049154;28;20028;-60
2023/12/01 03:37:10;;;;;;;39.93;18.53;;;0.20;99.90;;;;;;5049435;28;20044;-59
2023/12/01 03:39:36;;;;;;;38.95;18.05;;;0.20;99.90;;;;;;5030696;28;20045;-59
2023/12/01 03:42:02;;;;;;;38.40;17.65;;;0.20;99.90;;;;;;5049990;28;20037;-57
2023/12/01 03:44:28;;;;;;;38.28;17.80;;;0.20;99.90;;;;;;5049752;28;20439;-60
2023/12/01 03:46:54;;;;;;;;;;;0.10;99.90;;;;;;5024547;28;20037;-57
2023/12/01 03:49:19;;;;;;;41.08;19.30;;;0.10;99.90;;;;;;5049411;28;19923;-59
2023/12/01 03:51:45;;;;;;;39.87;18.67;;;0.10;99.90;;;;;;5048789;28;20067;-58
2023/12/01 03:54:11;;;;;;;37.77;18.03;;;0.10;99.90;;;;;;5049602;28;20032;-60
2023/12/01 03:56:37;;;;;;;44.47;17.77;;;0.10;99.90;;;;;;5048332;28;20045;-60
2023/12/01 03:59:03;;;;;;;38.10;19.27;;;0.10;99.90;;;;;;5049610;28;20067;-60
2023/12/01 04:01:29;;;;;;;36.03;17.55;;;0.00;99.90;;;;;;5048732;28;20063;-59
2023/12/01 04:03:54;;;;;;;39.83;18.13;;;0.00;99.90;;;;;;5048445;28;20045;-59
2023/12/01 04:06:21;;;;;;;34.00;15.43;;;0.00;99.90;;;;;;5048738;28;20049;-59
2023/12/01 04:08:46;;;;;;;37.00;17.60;;;0.00;99.90;;;;;;5030185;28;20037;-59
2023/12/01 04:11:12;;;;;;;38.90;17.17;;;0.00;99.90;;;;;;5049259;28;20176;-60
2023/12/01 04:13:38;;;;;;;31.57;15.37;;;0.00;99.90;;;;;;5048832;28;20421;-60
2023/12/01 04:16:04;;;;;;;33.83;16.33;;;0.00;99.90;;;;;;5048436;28;20248;-59
2023/12/01 04:18:30;;;;;;;34.55;15.40;;;-0.10;99.90;;;;;;5049448;28;20033;-57
2023/12/01 04:20:58;;;;;;;25.40;12.85;;;-0.10;99.90;;;;;;5049261;28;20045;-60
2023/12/01 04:23:24;;;;;;;32.80;14.48;;;-0.10;99.90;;;;;;5049092;28;20434;-60
2023/12/01 04:25:50;;;;;;;33.08;15.27;;;-0.20;99.90;;;;;;5048285;28;20053;-60
2023/12/01 04:28:16;;;;;;;28.50;15.77;;;-0.20;99.90;;;;;;5048461;28;20497;-60
2023/12/01 04:30:45;;;;;;;32.30;15.77;;;-0.20;99.90;;;;;;5048244;28;20174;-60
2023/12/01 04:33:13;;;;;;;30.90;15.18;;;-0.20;99.90;;;;;;5048012;28;20112;-59
2023/12/01 04:35:40;;;;;;;32.97;16.25;;;-0.30;99.90;;;;;;5049792;28;20064;-60
2023/12/01 04:38:05;;;;;;;30.83;16.38;;;-0.30;99.90;;;;;;5047992;28;20068;-62
2023/12/01 04:40:31;;;;;;;33.15;17.08;;;-0.30;99.90;;;;;;5031441;28;20057;-59
2023/12/01 04:42:58;;;;;;;32.47;16.77;;;-0.30;99.90;;;;;;5054367;28;20505;-61
2023/12/01 04:45:35;;;;;;;32.85;17.05;;;-0.30;99.90;;;;;;5052378;28;20160;-59
2023/12/01 04:48:01;;;;;;;36.90;16.50;;;-0.30;99.90;;;;;;5026629;28;20041;-61
2023/12/01 04:50:29;;;;;;;35.53;17.75;;;-0.30;99.90;;;;;;5048223;28;20040;-59
2023/12/01 04:52:56;;;;;;;34.08;17.00;;;-0.30;99.90;;;;;;5047865;28;20172;-57
2023/12/01 04:55:26;;;;;;;35.55;16.88;;;-0.30;99.90;;;;;;5047661;28;20087;-60
2023/12/01 04:57:54;;;;;;;30.83;15.77;;;-0.30;99.90;;;;;;5047209;28;20051;-60
2023/12/01 05:00:22;;;;;;;38.47;17.25;;;-0.30;99.90;;;;;;5048367;28;20040;-60
2023/12/01 05:03:04;;;;;;;32.10;15.88;;;-0.30;99.90;;;;;;5030535;28;20044;-60
2023/12/01 05:05:41;;;;;;;33.35;16.73;;;-0.30;99.90;;;;;;5048224;28;20115;-59
2023/12/01 05:08:08;;;;;;;32.35;16.33;;;-0.40;99.90;;;;;;5047854;28;20517;-60
2023/12/01 05:10:36;;;;;;;33.85;16.40;;;-0.40;99.90;;;;;;5030459;28;20053;-59
2023/12/01 05:13:06;;;;;;;35.53;17.50;;;-0.50;99.90;;;;;;5044412;28;20108;-58
2023/12/01 05:15:33;;;;;;;39.70;19.10;;;-0.60;99.90;;;;;;5045117;28;20485;-59
2023/12/01 05:18:01;;;;;;;41.78;19.27;;;-0.60;99.90;;;;;;5047720;28;20037;-58
2023/12/01 05:20:27;;;;;;;39.70;18.90;;;-0.70;99.90;;;;;;5046687;28;20068;-58
2023/12/01 05:23:00;;;;;;;;;;;-0.70;99.90;;;;;;5047992;28;20045;-59
2023/12/01 05:25:27;;;;;;;40.88;18.80;;;-0.70;99.90;;;;;;5047006;28;19920;-58
2023/12/01 05:27:55;;;;;;;40.10;19.83;;;-0.70;99.90;;;;;;5050090;28;20489;-59
2023/12/01 05:30:23;;;;;;;47.00;21.63;;;-0.70;99.90;;;;;;5049481;28;20122;-55
2023/12/01 05:32:50;;;;;;;43.55;19.42;;;-0.70;99.90;;;;;;5046780;28;20167;-57
2023/12/01 05:35:16;;;;;;;41.50;20.42;;;-0.70;99.90;;;;;;5046732;28;20339;-59
2023/12/01 05:37:48;;;;;;;41.22;20.67;;;-0.70;99.90;;;;;;5046192;28;20037;-58
2023/12/01 05:40:22;;;;;;;42.33;19.65;;;-0.70;99.90;;;;;;5045591;28;20045;-59
2023/12/01 05:42:52;;;;;;;48.58;23.67;;;-0.70;99.90;;;;;;5046972;28;20527;-60
2023/12/01 05:45:20;;;;;;;44.50;21.25;;;-0.70;99.90;;;;;;5046056;28;20150;-59
2023/12/01 05:47:46;;;;;;;46.83;23.10;;;-0.70;99.90;;;;;;5047436;28;20520;-58
2023/12/01 05:50:14;;;;;;;44.60;22.63;;;-0.70;99.90;;;;;;5045660;28;20064;-57
2023/12/01 05:52:41;;;;;;;42.72;19.95;;;-0.70;99.90;;;;;;5048239;28;20303;-56
2023/12/01 05:55:14;;;;;;;41.17;20.58;;;-0.70;99.90;;;;;;5046661;28;20041;-58
2023/12/01 05:57:50;;;;;;;44.47;21.80;;;-0.70;99.90;;;;;;5037697;28;20029;-58
2023/12/01 06:00:21;;;;;;;44.10;20.38;;;-0.70;99.90;;;;;;5046401;28;20045;-56
2023/12/01 06:02:48;;;;;;;44.25;21.08;;;-0.80;99.90;;;;;;5044751;28;20044;-59
2023/12/01 06:05:15;;;;;;;41.65;19.48;;;-0.70;99.90;;;;;;5044820;28;20037;-58
2023/12/01 06:07:43;;;;;;;47.53;21.85;;;-0.80;99.90;;;;;;5046517;28;20040;-58
2023/12/01 06:10:10;;;;;;;47.33;21.95;;;-0.70;99.90;;;;;;5046379;28;20029;-58
2023/12/01 06:12:39;;;;;;;44.33;20.45;;;-0.70;99.90;;;;;;5044203;28;20128;-59
2023/12/01 06:15:13;;;;;;;43.53;21.40;;;-0.80;99.90;;;;;;5044775;28;20037;-59
2023/12/01 06:17:43;;;;;;;41.67;20.58;;;-0.80;84.50;;;;;;5047244;28;20033;-58
2023/12/01 06:20:19;;;;;;;49.63;21.77;;;-0.90;84.20;;;;;;5046225;28;20150;-59
2023/12/01 06:23:01;;;;;;;44.33;21.67;;;-0.90;83.60;;;;;;5041539;28;20029;-59
2023/12/01 06:25:28;;;;;;;52.72;24.73;;;-0.90;84.20;;;;;;5046965;28;20143;-58
2023/12/01 06:28:02;;;;;;;47.25;21.70;;;-0.90;83.70;;;;;;5062197;28;20477;-59
2023/12/01 06:30:33;;;;;;;52.13;23.30;;;-0.90;80.10;;;;;;5046753;28;20067;-58
2023/12/01 06:32:59;;;;;;;51.55;23.00;;;-0.90;82.30;;;;;;5030888;28;20044;-58
2023/12/01 06:35:25;;;;;;;50.55;21.15;;;-0.90;82.10;;;;;;5048331;28;20051;-57
2023/12/01 06:37:50;;;;;;;50.43;22.67;;;-0.90;82.60;;;;;;5049603;28;20041;-57
2023/12/01 06:40:17;;;;;;;50.95;23.98;;;-0.90;83.30;;;;;;5043308;28;20505;-56
2023/12/01 06:42:48;;;;;;;48.67;21.73;;;-0.90;82.30;;;;;;5027808;28;20307;-59
2023/12/01 06:45:18;;;;;;;59.03;26.58;;;-0.90;83.00;;;;;;5028402;28;20120;-59
2023/12/01 06:47:46;;;;;;;48.78;21.33;;;-0.90;83.50;;;;;;5049778;28;20029;-56
2023/12/01 06:50:16;;;;;;;42.83;21.13;;;-0.90;85.90;;;;;;5046804;28;20040;-59
2023/12/01 06:52:43;;;;;;;44.30;21.40;;;-1.00;85.20;;;;;;5047426;28;20040;-59
2023/12/01 06:55:09;;;;;;;43.90;21.10;;;-1.00;85.60;;;;;;5046519;28;20104;-59
2023/12/01 06:57:38;;;;;;;42.83;20.48;;;-1.00;82.10;;;;;;5050210;28;20422;-58
2023/12/01 07:00:07;;;;;;;39.05;19.00;;;-1.00;78.10;;;;;;5049587;28;20029;-59
2023/12/01 07:02:34;;;;;;;44.65;19.73;;;-1.00;74.50;;;;;;5050067;28;20025;-59
2023/12/01 07:05:00;;;;;;;42.70;18.75;;;-1.10;75.10;;;;;;5044203;28;20052;-57
2023/12/01 07:07:30;;;;;;;43.27;20.57;;;-1.10;74.10;;;;;;5050818;28;20048;-59
2023/12/01 07:09:56;;;;;;;46.42;21.80;;;-1.10;73.60;;;;;;5049039;28;20556;-59
2023/12/01 07:12:22;;;;;;;45.85;20.60;;;-1.10;72.40;;;;;;5052575;28;20556;-58
2023/12/01 07:14:48;;;;;;;41.05;19.52;;;-1.10;74.90;;;;;;5049437;28;20049;-58
2023/12/01 07:17:14;;;;;;;39.05;20.00;;;-1.00;76.20;;;;;;5031255;28;20044;-59
2023/12/01 07:19:40;;;;;;;44.80;20.90;;;-1.00;76.60;;;;;;5048714;28;20033;-59
2023/12/01 07:22:06;;;;;;;40.05;18.40;;;-1.00;79.50;;;;;;5049850;28;20051;-59
2023/12/01 07:24:32;;;;;;;42.85;20.15;;;-1.00;83.90;;;;;;5047981;28;20115;-58
2023/12/01 07:26:58;;;;;;;43.75;21.50;;;-1.00;86.30;;;;;;5048127;28;20523;-58
2023/12/01 07:29:23;;;;;;;36.90;20.17;;;-1.10;82.10;;;;;;5046191;28;20071;-59
2023/12/01 07:31:51;;;;;;;39.80;17.17;;;-1.20;78.40;;;;;;5044474;28;20055;-60
2023/12/01 07:34:18;;;;;;;37.58;17.35;;;-1.30;78.30;;;;;;5047387;28;20033;-59
2023/12/01 15:41:52;;;;;;;17.70;10.98;;;1.20;31.40;;;;;;5035451;28;20357;-53
2023/12/01 15:44:17;;;;;;;16.37;10.90;;;1.10;99.90;;;;;;5052384;28;20132;-53
2023/12/01 15:46:43;;;;;;;17.93;11.93;;;1.00;99.90;;;;;;5048554;28;20091;-52
2023/12/01 15:49:09;;;;;;;20.37;10.40;;;0.90;99.90;;;;;;5053194;28;20032;-52
2023/12/01 15:51:34;;;;;;;20.20;11.40;;;0.90;1.00;;;;;;5050745;28;20492;-55
2023/12/01 15:54:00;;;;;;;18.87;11.27;;;0.70;1.00;;;;;;5048783;28;20037;-57
2023/12/01 15:56:25;;;;;;;16.53;10.93;;;0.70;2.80;;;;;;5048563;28;20036;-52
2023/12/01 15:58:55;;;;;;;16.50;11.00;;;0.50;99.90;;;;;;5046035;28;20033;-53
2023/12/01 16:01:21;;;;;;;19.08;12.20;;;0.40;99.90;;;;;;5048302;28;20279;-58
2023/12/01 16:03:46;;;;;;;19.07;12.10;;;0.30;99.90;;;;;;5048027;28;20064;-58
2023/12/01 16:06:12;;;;;;;20.07;12.47;;;0.20;99.90;;;;;;5046876;28;20119;-58
2023/12/01 16:08:38;;;;;;;21.10;12.83;;;0.00;99.90;;;;;;5028292;28;20311;-57
2023/12/01 16:11:04;;;;;;;24.73;14.43;;;0.00;99.90;;;;;;5045885;28;20456;-57
2023/12/01 16:13:29;;;;;;;21.27;12.60;;;-0.10;99.90;;;;;;5060054;28;20037;-55
2023/12/01 16:15:55;;;;;;;32.10;14.10;;;-0.10;1.00;;;;;;5030367;28;20033;-57
2023/12/01 16:18:23;;;;;;;75.57;15.93;;;-0.20;1.00;;;;;;5026376;28;20510;-58
2023/12/01 16:20:52;;;;;;;23.48;13.55;;;-0.20;1.00;;;;;;5045506;28;20563;-56
2023/12/01 16:23:17;;;;;;;20.25;13.38;;;-0.10;1.00;;;;;;5045129;28;20574;-57
2023/12/01 16:25:45;;;;;;;21.93;13.30;;;-0.10;1.00;;;;;;5046137;28;20111;-57
2023/12/01 16:28:11;;;;;;;20.25;12.88;;;0.00;1.00;;;;;;5046631;28;20048;-57
2023/12/01 16:30:37;;;;;;;21.90;12.87;;;0.00;1.00;;;;;;5048107;28;20037;-57
2023/12/01 16:33:02;;;;;;;20.13;12.87;;;0.10;1.00;;;;;;5046393;28;20040;-57
2023/12/01 16:35:28;;;;;;;26.57;13.97;;;0.10;1.00;;;;;;5043100;28;20037;-58
2023/12/01 16:37:54;;;;;;;18.73;12.10;;;0.20;1.00;;;;;;5043188;28;20539;-57
2023/12/01 16:40:20;;;;;;;23.00;13.35;;;0.20;1.00;;;;;;5046783;28;20033;-57
2023/12/01 16:42:46;;;;;;;19.80;12.43;;;0.20;1.00;;;;;;5046830;28;20089;-57
2023/12/01 16:45:11;;;;;;;26.00;16.15;;;0.30;1.00;;;;;;5047789;28;20120;-58
2023/12/01 16:47:37;;;;;;;23.77;15.37;;;0.30;1.00;;;;;;5044124;28;20420;-58
2023/12/01 16:50:04;;;;;;;25.33;14.87;;;0.30;1.00;;;;;;5044854;28;20286;-59
2023/12/01 16:52:30;;;;;;;25.70;15.57;;;0.40;1.00;;;;;;5048917;28;20115;-57
2023/12/01 16:54:55;;;;;;;22.20;14.57;;;0.40;1.00;;;;;;5049250;28;20124;-58
2023/12/01 16:57:21;;;;;;;24.00;13.87;;;0.40;1.00;;;;;;5043067;28;20485;-57
2023/12/01 16:59:47;;;;;;;22.33;14.02;;;0.40;1.00;;;;;;5043360;28;20493;-57
2023/12/01 17:02:13;;;;;;;29.60;14.80;;;0.40;1.00;;;;;;5044049;28;20193;-58
2023/12/01 17:04:38;;;;;;;24.13;13.85;;;0.40;1.00;;;;;;5048958;28;20275;-57
2023/12/01 17:07:08;;;;;;;21.17;13.90;;;0.40;1.00;;;;;;5032131;28;20047;-59
2023/12/01 17:09:34;;;;;;;22.73;13.82;;;0.40;1.00;;;;;;5047542;28;20029;-59
2023/12/01 17:11:59;;;;;;;20.33;13.25;;;0.40;1.00;;;;;;5046517;28;20041;-58
2023/12/01 17:14:25;;;;;;;25.93;13.70;;;0.40;1.00;;;;;;5045267;28;20044;-58
2023/12/01 17:16:51;;;;;;;24.60;15.05;;;0.50;1.00;;;;;;5048737;28;20497;-57
2023/12/01 17:19:18;;;;;;;20.77;13.48;;;0.40;1.00;;;;;;5049175;28;20498;-58
2023/12/01 17:21:43;;;;;;;26.73;15.23;;;0.50;1.00;;;;;;5048280;28;20714;-58
2023/12/01 17:24:09;;;;;;;25.70;15.67;;;0.50;1.00;;;;;;5052903;28;20075;-58
2023/12/01 17:26:34;;;;;;;27.43;14.63;;;0.40;1.00;;;;;;5048754;28;20412;-58
2023/12/01 17:29:00;;;;;;;26.20;15.90;;;0.40;1.00;;;;;;5050191;28;20060;-58
2023/12/01 17:31:26;;;;;;;26.80;15.63;;;0.30;1.00;;;;;;5048237;28;20052;-57
2023/12/01 17:33:53;;;;;;;22.57;15.63;;;0.30;1.00;;;;;;5053222;28;20036;-58
2023/12/01 17:36:18;;;;;;;;;;;0.30;1.00;;;;;;5048648;28;20421;-55
2023/12/01 17:38:44;;;;;;;22.25;13.95;;;0.30;1.00;;;;;;5048157;28;19956;-59
2023/12/01 17:41:10;;;;;;;26.93;15.93;;;0.30;1.00;;;;;;5049647;28;20474;-58
2023/12/01 17:43:35;;;;;;;22.77;13.60;;;0.40;1.00;;;;;;5048169;28;20039;-56
2023/12/01 17:46:01;;;;;;;24.47;15.70;;;0.40;1.00;;;;;;5048799;28;20157;-57
2023/12/01 17:48:26;;;;;;;23.77;15.13;;;0.30;1.00;;;;;;5030081;28;20119;-57
2023/12/01 17:50:53;;;;;;;27.40;15.43;;;0.30;1.00;;;;;;5048392;28;20382;-57
2023/12/01 17:53:18;;;;;;;26.23;16.05;;;0.20;1.00;;;;;;5030366;28;20473;-58
2023/12/01 17:55:44;;;;;;;30.70;16.67;;;0.20;1.00;;;;;;5048979;28;20112;-58
2023/12/01 17:58:09;;;;;;;27.30;15.00;;;0.10;1.00;;;;;;5048249;28;20040;-58
2023/12/01 18:00:36;;;;;;;28.23;14.80;;;0.00;1.00;;;;;;5052615;28;20032;-56
2023/12/01 18:03:01;;;;;;;26.23;14.68;;;0.10;1.00;;;;;;5051727;28;20086;-59
2023/12/01 18:05:27;;;;;;;30.03;16.20;;;0.10;1.00;;;;;;5048128;28;20033;-55
2023/12/01 18:07:52;;;;;;;29.30;16.23;;;0.10;1.00;;;;;;5050157;28;20068;-59
2023/12/01 18:10:18;;;;;;;26.07;15.17;;;0.10;1.00;;;;;;5030082;28;20033;-57
2023/12/01 18:12:44;;;;;;;26.92;15.73;;;0.10;1.00;;;;;;5049087;28;20573;-59
2023/12/01 18:15:10;;;;;;;28.57;17.00;;;0.00;1.00;;;;;;5047191;28;20041;-57
2023/12/01 18:17:35;;;;;;;28.53;16.80;;;-0.10;1.00;;;;;;5050022;28;20072;-58
2023/12/01 18:20:01;;;;;;;29.83;16.60;;;-0.10;1.00;;;;;;5048781;28;20279;-58
2023/12/01 18:22:26;;;;;;;28.17;14.93;;;-0.10;1.00;;;;;;5033760;28;20032;-57
2023/12/01 18:24:52;;;;;;;25.93;15.07;;;-0.10;1.00;;;;;;5034720;28;20091;-57
2023/12/01 18:27:23;;;;;;;26.80;16.33;;;-0.20;1.00;;;;;;5052362;28;20040;-57
2023/12/01 18:29:50;;;;;;;29.10;17.08;;;-0.20;1.00;;;;;;5033966;28;20125;-58
2023/12/01 18:32:15;;;;;;;29.92;16.98;;;-0.20;1.00;;;;;;5050753;28;20041;-57
2023/12/01 18:34:41;;;;;;;23.67;15.43;;;-0.20;1.00;;;;;;5053392;28;20033;-57
2023/12/01 18:37:06;;;;;;;24.90;15.10;;;-0.20;1.00;;;;;;5056461;28;20198;-56
2023/12/01 18:39:32;;;;;;;41.20;24.57;;;-0.10;1.00;;;;;;5054485;28;20489;-58
2023/12/01 18:41:57;;;;;;;32.97;20.57;;;-0.10;1.00;;;;;;5034476;28;20047;-59
2023/12/01 18:44:23;;;;;;;25.60;15.77;;;-0.10;1.00;;;;;;5051519;28;20033;-58
2023/12/01 18:46:49;;;;;;;27.85;17.23;;;-0.10;1.00;;;;;;5052492;28;20045;-55
2023/12/01 18:49:15;;;;;;;24.87;14.03;;;0.00;1.00;;;;;;5054407;28;20443;-59
2023/12/01 18:51:43;;;;;;;25.98;16.75;;;0.00;1.00;;;;;;5052761;28;20108;-58
2023/12/01 18:54:10;;;;;;;26.90;15.50;;;0.00;1.00;;;;;;5051238;28;20127;-57
2023/12/01 18:56:36;;;;;;;31.58;17.67;;;0.00;1.00;;;;;;5033604;28;20136;-57
2023/12/01 18:59:02;;;;;;;27.35;15.93;;;0.00;1.00;;;;;;5051496;28;20128;-57
2023/12/01 19:01:27;;;;;;;25.00;15.33;;;0.00;1.00;;;;;;5050528;28;20047;-58
2023/12/01 19:03:53;;;;;;;30.73;15.53;;;0.00;1.00;;;;;;5054722;28;20393;-58
2023/12/01 19:06:19;;;;;;;29.40;16.10;;;0.00;1.00;;;;;;5051342;28;20072;-60
2023/12/01 19:08:44;;;;;;;30.17;16.55;;;0.10;1.00;;;;;;5049902;28;20033;-58
2023/12/01 19:11:11;;;;;;;31.00;16.87;;;0.10;1.00;;;;;;5051689;28;20045;-58
2023/12/01 19:13:36;;;;;;;23.00;14.77;;;0.10;1.00;;;;;;5050701;28;20036;-57
2023/12/01 19:16:02;;;;;;;27.70;16.47;;;0.10;1.00;;;;;;5050632;28;20040;-59
2023/12/01 19:18:29;;;;;;;27.73;15.47;;;0.10;1.00;;;;;;5050698;28;20037;-60
2023/12/01 19:20:54;;;;;;;28.55;15.98;;;0.10;1.00;;;;;;5051307;28;20049;-60
2023/12/01 19:23:20;;;;;;;29.27;18.20;;;0.00;1.00;;;;;;5050631;28;20132;-58
2023/12/01 19:25:46;;;;;;;26.50;15.53;;;0.00;1.00;;;;;;5062004;28;20080;-58
2023/12/01 19:28:11;;;;;;;27.50;15.93;;;-0.10;1.00;;;;;;5032466;28;20291;-57
2023/12/01 19:30:37;;;;;;;29.93;17.33;;;-0.10;1.00;;;;;;5050508;28;20033;-60
2023/12/01 19:33:02;;;;;;;28.07;16.80;;;-0.10;1.00;;;;;;5050938;28;20040;-57
2023/12/01 19:35:28;;;;;;;29.30;16.10;;;-0.20;1.00;;;;;;5046653;28;20037;-58
2023/12/01 19:37:54;;;;;;;28.17;15.67;;;-0.10;1.00;;;;;;5039759;28;20037;-60
2023/12/01 19:40:20;;;;;;;26.90;16.13;;;-0.10;1.00;;;;;;5054584;28;20128;-59
2023/12/01 19:42:46;;;;;;;;;;;-0.10;1.00;;;;;;5052033;28;20028;-57
2023/12/01 19:45:11;;;;;;;27.13;15.38;;;-0.10;1.00;;;;;;5048975;28;19923;-59
2023/12/01 19:47:37;;;;;;;31.43;17.57;;;-0.10;1.00;;;;;;5051096;28;20032;-59
2023/12/01 19:50:03;;;;;;;29.83;16.13;;;-0.10;1.00;;;;;;5050375;28;20049;-59
2023/12/01 19:52:29;;;;;;;27.30;16.27;;;0.00;1.00;;;;;;5050618;28;20033;-59
2023/12/01 19:54:55;;;;;;;31.60;18.58;;;0.00;1.00;;;;;;5050537;28;20049;-56
2023/12/01 19:57:22;;;;;;;31.07;17.87;;;0.00;1.00;;;;;;5050606;28;20047;-59
2023/12/01 19:59:48;;;;;;;28.00;15.93;;;0.00;1.00;;;;;;5050671;28;20314;-58
2023/12/01 20:02:13;;;;;;;31.70;18.23;;;0.00;1.00;;;;;;5050830;28;20124;-59
2023/12/01 20:04:39;;;;;;;28.38;18.05;;;0.00;1.00;;;;;;5049828;28;20123;-56
2023/12/01 20:07:05;;;;;;;27.20;16.30;;;0.00;1.00;;;;;;5066100;28;20045;-59
2023/12/01 20:09:30;;;;;;;27.60;16.70;;;0.00;1.00;;;;;;5051593;28;20048;-59
2023/12/01 20:11:56;;;;;;;33.73;17.27;;;0.00;1.00;;;;;;5050327;28;20524;-57
2023/12/01 20:14:22;;;;;;;31.07;16.37;;;0.00;1.00;;;;;;5049363;28;20390;-59
2023/12/01 20:16:48;;;;;;;32.58;18.80;;;0.00;1.00;;;;;;5050038;28;20040;-58
2023/12/01 20:19:13;;;;;;;31.07;16.83;;;0.00;1.00;;;;;;5032005;28;20037;-57
2023/12/01 20:21:39;;;;;;;30.73;18.00;;;0.10;1.00;;;;;;5031426;28;20037;-59
2023/12/01 20:24:05;;;;;;;35.22;18.45;;;0.10;1.00;;;;;;5050006;28;20037;-58
2023/12/01 20:26:31;;;;;;;29.48;17.45;;;0.10;1.00;;;;;;5054367;28;20035;-57
2023/12/01 20:28:56;;;;;;;32.83;19.13;;;0.10;1.00;;;;;;5054454;28;20041;-58
2023/12/01 20:31:22;;;;;;;37.73;20.73;;;0.10;1.00;;;;;;5049306;28;20631;-57
2023/12/01 20:33:48;;;;;;;31.23;18.93;;;0.10;1.00;;;;;;5051098;28;20041;-58
2023/12/01 20:36:13;;;;;;;34.50;18.20;;;0.10;1.00;;;;;;5050638;28;20028;-59
2023/12/01 20:38:40;;;;;;;35.67;20.13;;;0.10;1.00;;;;;;5046067;28;20028;-58
2023/12/01 20:41:06;;;;;;;28.92;18.92;;;0.10;1.00;;;;;;5051588;28;20613;-60